Alton Bay, New Hampshire
Current Conditions -  °F | °C
As of 7:55 PM on Thursday 30 Oct 2014 (Local Time) from KLCI Reporting Station
Clear Clear  
Wind Chill: 39°   Ceiling: Unl
Heat Index: 39°   Visibility: 10mi
Dew Point: 34°   Wind: 3mph
Humidity: 81%   Direction: 250°WSW
Pressure: 29.95"   Gusts: NA
Location:  43.47°N, 71.23°W
Report Text: KLCI 302355Z AUTO 25003KT 10SM CLR 04/01 A2995 RMK AO1 10120 20040 401300030 52010
Loading
Personal Weather Stations






























Interactive Weather Map
Tropical Storm Tracking
New forecast layout! Learn more

10-Day Weather Forecast

Advertisements
Track Severe Weather on mobile